Time;durP1;ratioP1;P1;durP2;ratioP2;P2;SDS_P1;SDS_P2;PMS_P1;PMS_P2;Temp;Humidity;BMP_temperature;BMP_pressure;BME280_temperature;BME280_humidity;BME280_pressure;Samples;Min_cycle;Max_cycle;Signal;HPM_P1;HPM_P2
2022/04/14 00:01:33;;;;;;;12.95;7.75;;;9.50;99.90;;;;;;5031965;28;20049;-44
2022/04/14 00:03:59;;;;;;;17.98;8.52;;;9.80;99.90;;;;;;5031807;28;20391;-48
2022/04/14 00:06:24;;;;;;;17.73;7.95;;;10.60;99.90;;;;;;5032331;28;20052;-45
2022/04/14 00:08:52;;;;;;;14.63;7.25;;;9.40;99.90;;;;;;5031243;28;20041;-45
2022/04/14 00:11:18;;;;;;;10.18;6.70;;;9.50;99.90;;;;;;5032044;28;20038;-45
2022/04/14 00:13:44;;;;;;;13.57;6.50;;;9.40;99.90;;;;;;5031082;28;20060;-44
2022/04/14 00:16:10;;;;;;;12.55;7.40;;;9.40;99.90;;;;;;5030735;28;20045;-44
2022/04/14 00:18:35;;;;;;;15.88;7.57;;;9.40;99.90;;;;;;5030924;28;20048;-45
2022/04/14 00:21:01;;;;;;;17.27;7.25;;;9.40;99.90;;;;;;5031033;28;20040;-46
2022/04/14 00:23:27;;;;;;;13.85;7.35;;;9.30;99.90;;;;;;5031663;28;20128;-45
2022/04/14 00:25:52;;;;;;;12.52;6.70;;;10.10;99.90;;;;;;5032025;28;20041;-45
2022/04/14 00:28:18;;;;;;;19.38;7.75;;;9.30;99.90;;;;;;5031047;28;20053;-46
2022/04/14 00:30:44;;;;;;;12.65;6.88;;;9.20;99.90;;;;;;5031330;28;20044;-46
2022/04/14 00:33:09;;;;;;;15.57;6.82;;;9.40;99.90;;;;;;5031476;28;20077;-46
2022/04/14 00:35:35;;;;;;;17.33;8.55;;;9.50;99.90;;;;;;5031089;28;20052;-44
2022/04/14 00:38:01;;;;;;;12.20;7.35;;;9.60;99.90;;;;;;5031311;28;20045;-45
2022/04/14 00:40:26;;;;;;;13.07;7.70;;;9.30;99.90;;;;;;5030974;28;20515;-44
2022/04/14 00:42:52;;;;;;;15.93;7.65;;;9.30;99.90;;;;;;5030304;28;20107;-47
2022/04/14 00:45:18;;;;;;;17.10;8.35;;;9.20;99.90;;;;;;5030054;28;20045;-44
2022/04/14 00:47:44;;;;;;;14.48;7.72;;;9.20;99.90;;;;;;5029847;28;20056;-45
2022/04/14 00:50:10;;;;;;;18.20;8.77;;;9.50;99.90;;;;;;5030124;28;20037;-44
2022/04/14 00:52:43;;;;;;;19.27;9.35;;;10.00;99.90;;;;;;5029901;28;20080;-46
2022/04/14 00:55:08;;;;;;;17.52;9.88;;;9.10;99.90;;;;;;5030402;28;20049;-45
2022/04/14 00:57:34;;;;;;;17.02;9.57;;;9.00;99.90;;;;;;5029957;28;20126;-45
2022/04/14 01:00:00;;;;;;;20.10;9.68;;;9.20;99.90;;;;;;5029503;28;20077;-46
2022/04/14 01:02:25;;;;;;;17.70;10.07;;;9.10;99.90;;;;;;5030088;28;20483;-48
2022/04/14 01:04:52;;;;;;;19.33;10.32;;;9.30;99.90;;;;;;5029729;28;20056;-44
2022/04/14 01:07:18;;;;;;;24.10;10.55;;;9.10;99.90;;;;;;5030802;28;20388;-48
2022/04/14 01:09:45;;;;;;;23.20;11.35;;;9.50;99.90;;;;;;5030723;28;20044;-46
2022/04/14 01:12:10;;;;;;;17.17;10.45;;;9.00;99.90;;;;;;5029676;28;20037;-45
2022/04/14 01:14:37;;;;;;;23.40;11.55;;;9.10;99.90;;;;;;5029455;28;20040;-49
2022/04/14 01:17:08;;;;;;;18.58;12.02;;;8.90;99.90;;;;;;5029970;28;20070;-45
2022/04/14 01:19:35;;;;;;;19.67;10.95;;;9.10;99.90;;;;;;5030626;28;20052;-45
2022/04/14 01:22:26;;;;;;;19.73;11.48;;;9.90;99.90;;;;;;5029855;28;20041;-46
2022/04/14 01:24:59;;;;;;;21.17;10.70;;;8.90;99.90;;;;;;5030396;28;20072;-44
2022/04/14 01:27:25;;;;;;;20.90;12.82;;;9.80;99.90;;;;;;5029924;28;20116;-46
2022/04/14 01:29:52;;;;;;;22.80;13.25;;;9.10;99.90;;;;;;5029684;28;20049;-46
2022/04/14 01:32:21;;;;;;;21.30;11.45;;;8.70;99.90;;;;;;5029407;28;20116;-45
2022/04/14 01:34:48;;;;;;;22.42;12.55;;;9.10;99.90;;;;;;5030494;28;20067;-45
2022/04/14 01:37:14;;;;;;;24.08;13.73;;;9.40;99.90;;;;;;5030124;28;20049;-49
2022/04/14 01:39:40;;;;;;;19.92;12.00;;;8.60;99.90;;;;;;5030022;28;20045;-52
2022/04/14 01:42:06;;;;;;;22.58;13.13;;;8.70;99.90;;;;;;5029977;28;20564;-45
2022/04/14 01:44:32;;;;;;;21.05;12.77;;;8.50;99.90;;;;;;5029194;28;20084;-45
2022/04/14 01:46:58;;;;;;;31.08;13.20;;;8.90;99.90;;;;;;5029831;28;20143;-46
2022/04/14 01:49:23;;;;;;;19.73;12.00;;;8.70;99.90;;;;;;5029672;28;20045;-45
2022/04/14 01:51:49;;;;;;;26.27;13.68;;;8.90;99.90;;;;;;5029503;28;20099;-44
2022/04/14 01:54:15;;;;;;;27.45;14.07;;;8.50;99.90;;;;;;5029810;28;20576;-44
2022/04/14 01:56:41;;;;;;;27.92;13.63;;;8.70;99.90;;;;;;5029226;28;20100;-44
2022/04/14 01:59:08;;;;;;;22.80;13.45;;;8.90;99.90;;;;;;5030221;28;20053;-45
2022/04/14 02:01:34;;;;;;;36.15;13.95;;;8.70;99.90;;;;;;5030580;28;20121;-46
2022/04/14 02:04:02;;;;;;;28.83;14.35;;;8.40;99.90;;;;;;5029902;28;20125;-45
2022/04/14 02:06:31;;;;;;;28.05;14.05;;;9.40;99.90;;;;;;5030130;28;20048;-45
2022/04/14 02:08:56;;;;;;;29.30;14.90;;;8.40;99.90;;;;;;5029380;28;20610;-44
2022/04/14 02:11:23;;;;;;;30.92;14.85;;;8.70;99.90;;;;;;5030071;28;20116;-44
2022/04/14 02:13:48;;;;;;;28.58;15.27;;;8.60;99.90;;;;;;5029799;28;20481;-44
2022/04/14 02:16:14;;;;;;;24.88;14.10;;;9.20;99.90;;;;;;5029297;28;20045;-44
2022/04/14 02:18:40;;;;;;;24.38;13.80;;;8.80;99.90;;;;;;5031975;28;20045;-45
2022/04/14 02:21:05;;;;;;;27.40;14.70;;;8.50;99.90;;;;;;5031633;28;20535;-44
2022/04/14 02:23:31;;;;;;;29.10;15.20;;;8.30;99.90;;;;;;5032368;28;20056;-43
2022/04/14 02:25:57;;;;;;;23.15;12.90;;;7.80;99.90;;;;;;5033722;28;20139;-45
2022/04/14 02:28:22;;;;;;;25.92;13.65;;;8.10;99.90;;;;;;5033270;28;20388;-44
2022/04/14 02:30:48;;;;;;;34.42;16.75;;;8.10;99.90;;;;;;5033050;28;20056;-44
2022/04/14 02:33:14;;;;;;;29.27;15.45;;;7.90;99.90;;;;;;5033194;28;20114;-44
2022/04/14 02:35:40;;;;;;;30.70;16.98;;;8.10;99.90;;;;;;5033813;28;20045;-46
2022/04/14 02:38:06;;;;;;;36.30;17.02;;;8.20;99.90;;;;;;5033975;28;20037;-45
2022/04/14 02:40:32;;;;;;;34.00;17.63;;;8.30;99.90;;;;;;5033339;28;20099;-44
2022/04/14 02:42:58;;;;;;;32.97;18.90;;;7.60;99.90;;;;;;5033837;28;20049;-44
2022/04/14 02:45:25;;;;;;;37.03;19.80;;;7.80;99.90;;;;;;5033084;28;20045;-45
2022/04/14 02:47:52;;;;;;;37.10;19.17;;;7.60;99.90;;;;;;5034025;28;20120;-45
2022/04/14 02:50:20;;;;;;;35.58;20.33;;;7.90;99.90;;;;;;5031878;28;20402;-45
2022/04/14 02:52:47;;;;;;;40.70;20.70;;;8.30;99.90;;;;;;5033372;28;20085;-47
2022/04/14 02:55:13;;;;;;;33.05;20.65;;;8.00;99.90;;;;;;5033403;28;20099;-45
2022/04/14 02:57:39;;;;;;;42.90;21.75;;;8.20;99.90;;;;;;5033287;28;20042;-45
2022/04/14 03:00:09;;;;;;;38.55;21.00;;;8.20;99.90;;;;;;5033172;28;20442;-45
2022/04/14 03:02:35;;;;;;;42.58;21.35;;;7.80;99.90;;;;;;5033617;28;20499;-46
2022/04/14 03:05:02;;;;;;;33.72;20.58;;;8.00;99.90;;;;;;5033072;28;20530;-45
2022/04/14 03:07:28;;;;;;;44.03;21.25;;;8.50;99.90;;;;;;5033264;28;20079;-44
2022/04/14 03:09:54;;;;;;;41.78;21.10;;;8.60;99.90;;;;;;5032414;28;20452;-45
2022/04/14 03:12:20;;;;;;;44.60;24.10;;;8.30;99.90;;;;;;5032526;28;20117;-44
2022/04/14 03:14:49;;;;;;;41.17;24.45;;;8.10;99.90;;;;;;5032577;28;20388;-44
2022/04/14 03:17:15;;;;;;;38.47;22.77;;;8.00;99.90;;;;;;5032673;28;20045;-45
2022/04/14 03:19:41;;;;;;;45.80;22.80;;;8.00;99.90;;;;;;5032845;28;20056;-44
2022/04/14 03:22:06;;;;;;;40.75;24.58;;;7.90;99.90;;;;;;5032622;28;20045;-45
2022/04/14 03:24:32;;;;;;;41.15;23.02;;;7.90;99.90;;;;;;5032641;28;20052;-44
2022/04/14 03:26:58;;;;;;;43.90;24.77;;;8.00;99.90;;;;;;5033355;28;20037;-46
2022/04/14 03:29:24;;;;;;;38.83;23.63;;;8.10;99.90;;;;;;5031099;28;20044;-45
2022/04/14 03:31:50;;;;;;;43.70;24.85;;;7.80;99.90;;;;;;5032412;28;20547;-45
2022/04/14 03:34:15;;;;;;;46.20;23.27;;;8.00;99.90;;;;;;5032474;28;20050;-45
2022/04/14 03:36:41;;;;;;;39.08;21.90;;;7.80;99.90;;;;;;5032605;28;20048;-45
2022/04/14 03:39:07;;;;;;;39.35;20.55;;;7.70;99.90;;;;;;5032884;28;20045;-44
2022/04/14 03:41:32;;;;;;;34.42;20.25;;;7.70;99.90;;;;;;5032470;28;20060;-45
2022/04/14 03:43:58;;;;;;;39.47;22.58;;;7.20;99.90;;;;;;5032408;28;20490;-45
2022/04/14 03:46:24;;;;;;;39.25;22.17;;;7.70;99.90;;;;;;5032513;28;20483;-45
2022/04/14 03:48:49;;;;;;;38.00;22.65;;;7.30;99.90;;;;;;5032568;28;20053;-45
2022/04/14 03:51:15;;;;;;;44.10;25.00;;;7.50;99.90;;;;;;5032265;28;20120;-44
2022/04/14 03:53:42;;;;;;;48.58;26.95;;;7.20;99.90;;;;;;5033019;28;20071;-44
2022/04/14 03:56:08;;;;;;;48.55;28.23;;;7.30;99.90;;;;;;5032381;28;20118;-44
2022/04/14 03:58:33;;;;;;;53.25;28.52;;;7.30;99.90;;;;;;5032445;28;20491;-45
2022/04/14 04:00:59;;;;;;;57.08;29.95;;;7.10;99.90;;;;;;5032661;28;20049;-44
2022/04/14 04:03:25;;;;;;;56.28;30.17;;;7.20;99.90;;;;;;5032406;28;20038;-44
2022/04/14 04:05:51;;;;;;;58.13;28.55;;;7.40;99.90;;;;;;5032333;28;20037;-45
2022/04/14 04:08:18;;;;;;;57.17;30.75;;;7.20;99.90;;;;;;5031835;28;20042;-45
2022/04/14 04:10:44;;;;;;;61.42;30.13;;;6.90;99.90;;;;;;5031945;28;20102;-48
2022/04/14 04:13:10;;;;;;;52.72;29.50;;;7.20;99.90;;;;;;5031340;28;20498;-44
2022/04/14 04:15:36;;;;;;;55.45;29.52;;;7.60;99.90;;;;;;5031608;28;20038;-44
2022/04/14 04:18:04;;;;;;;57.78;30.95;;;7.30;99.90;;;;;;5031398;28;20393;-44
2022/04/14 04:20:30;;;;;;;59.33;30.27;;;6.70;99.90;;;;;;5031211;28;20049;-44
2022/04/14 04:22:56;;;;;;;61.83;32.67;;;6.70;99.90;;;;;;5030999;28;20495;-44
2022/04/14 04:25:22;;;;;;;70.15;34.33;;;6.50;99.90;;;;;;5031391;28;20076;-44
2022/04/14 04:27:48;;;;;;;67.30;33.08;;;6.60;99.90;;;;;;5031599;28;20041;-45
2022/04/14 04:30:13;;;;;;;65.75;33.55;;;6.70;99.90;;;;;;5031608;28;20046;-44
2022/04/14 04:32:39;;;;;;;73.82;35.97;;;6.60;99.90;;;;;;5031218;28;20045;-46
2022/04/14 04:35:06;;;;;;;73.05;36.20;;;7.70;99.90;;;;;;5031805;28;20041;-44
2022/04/14 04:37:32;;;;;;;75.40;35.17;;;6.60;99.90;;;;;;5027676;28;20045;-46
2022/04/14 04:39:58;;;;;;;68.35;33.40;;;6.60;99.90;;;;;;5003872;28;20073;-49
2022/04/14 04:42:24;;;;;;;80.28;35.53;;;6.60;99.90;;;;;;5029661;28;20833;-47
2022/04/14 04:44:50;;;;;;;73.03;34.70;;;7.10;99.90;;;;;;5026767;28;20060;-46
2022/04/14 04:47:16;;;;;;;73.45;35.15;;;6.80;99.90;;;;;;5026686;28;20468;-51
2022/04/14 04:49:42;;;;;;;74.38;35.10;;;7.00;99.90;;;;;;5027569;28;20048;-48
2022/04/14 04:52:08;;;;;;;70.90;34.05;;;6.90;99.90;;;;;;5029093;28;20080;-46
2022/04/14 04:54:34;;;;;;;81.93;36.85;;;7.00;99.90;;;;;;5031241;28;20124;-48
2022/04/14 04:57:00;;;;;;;71.40;33.75;;;6.70;99.90;;;;;;5028913;28;20136;-53
2022/04/14 04:59:25;;;;;;;71.75;35.25;;;6.90;99.90;;;;;;5027962;28;20068;-48
2022/04/14 05:01:51;;;;;;;87.55;37.33;;;6.50;99.90;;;;;;5028682;28;20048;-46
2022/04/14 05:04:17;;;;;;;89.82;39.72;;;7.00;99.90;;;;;;5030532;28;20045;-47
2022/04/14 05:06:43;;;;;;;93.65;38.58;;;6.60;99.90;;;;;;5028979;28;20038;-46
2022/04/14 05:09:09;;;;;;;79.03;36.10;;;6.90;99.90;;;;;;5029798;28;20057;-44
2022/04/14 05:11:34;;;;;;;86.07;36.10;;;6.60;99.90;;;;;;5030283;28;20095;-45
2022/04/14 05:14:01;;;;;;;79.97;35.70;;;6.60;99.90;;;;;;5030222;28;20069;-45
2022/04/14 05:16:27;;;;;;;66.70;31.65;;;6.50;99.90;;;;;;5030428;28;20083;-51
2022/04/14 05:18:53;;;;;;;64.45;30.63;;;7.30;99.90;;;;;;5030734;28;20033;-45
2022/04/14 05:21:19;;;;;;;58.47;30.08;;;6.40;99.90;;;;;;5029610;28;20487;-47
2022/04/14 05:23:44;;;;;;;53.20;28.98;;;6.50;99.90;;;;;;5031415;28;20053;-50
2022/04/14 05:26:10;;;;;;;58.53;29.75;;;7.20;99.90;;;;;;5031054;28;20114;-46
2022/04/14 05:28:36;;;;;;;53.08;29.15;;;6.90;99.90;;;;;;5030139;28;20160;-50
2022/04/14 05:31:02;;;;;;;61.53;30.67;;;6.60;99.90;;;;;;5029731;28;20041;-51
2022/04/14 05:33:28;;;;;;;58.25;31.25;;;7.20;99.90;;;;;;5028336;28;20656;-44
2022/04/14 05:35:54;;;;;;;67.10;35.05;;;7.20;99.90;;;;;;5028715;28;20079;-45
2022/04/14 05:38:19;;;;;;;62.90;35.47;;;7.90;99.90;;;;;;5029237;28;20049;-47
2022/04/14 05:40:45;;;;;;;59.53;33.53;;;8.60;99.90;;;;;;5028766;28;20132;-47
2022/04/14 05:43:26;;;;;;;51.60;31.50;;;8.80;99.90;;;;;;5029871;28;20057;-47
2022/04/14 05:45:51;;;;;;;37.85;27.63;;;9.50;99.90;;;;;;5030120;28;20045;-45
2022/04/14 05:48:18;;;;;;;38.20;26.55;;;10.20;99.90;;;;;;5029597;28;20443;-48
2022/04/14 05:50:45;;;;;;;34.55;24.08;;;11.10;99.90;;;;;;5015269;28;20120;-55
2022/04/14 05:53:11;;;;;;;29.50;21.73;;;12.30;99.90;;;;;;5028737;28;20049;-53
2022/04/14 05:55:39;;;;;;;28.50;21.25;;;12.60;99.90;;;;;;5029373;28;20120;-55
2022/04/14 05:58:05;;;;;;;28.95;20.95;;;13.60;99.90;;;;;;5029311;28;20243;-44
2022/04/14 06:00:32;;;;;;;26.40;19.83;;;14.50;99.90;;;;;;5029302;28;20041;-42
2022/04/14 06:02:59;;;;;;;26.70;20.42;;;14.60;99.90;;;;;;5026220;28;20053;-48
2022/04/14 06:05:29;;;;;;;28.05;21.23;;;14.90;99.90;;;;;;5027596;28;20053;-47
2022/04/14 06:07:55;;;;;;;27.25;19.33;;;15.20;99.90;;;;;;5027064;28;20053;-48
2022/04/14 06:10:22;;;;;;;24.02;18.40;;;15.70;99.90;;;;;;5027222;28;20041;-47
2022/04/14 06:12:49;;;;;;;25.92;19.00;;;16.60;99.90;;;;;;5027811;28;20041;-46
2022/04/14 06:15:15;;;;;;;28.65;21.85;;;17.30;99.90;;;;;;5026554;28;20049;-47
2022/04/14 06:17:42;;;;;;;25.83;19.02;;;17.80;99.90;;;;;;5026577;28;20514;-46
2022/04/14 06:20:08;;;;;;;26.13;19.52;;;18.40;99.90;;;;;;5027196;28;20049;-47
2022/04/14 06:22:41;;;;;;;26.00;20.13;;;19.00;99.90;;;;;;5027727;28;20052;-48
2022/04/14 06:25:12;;;;;;;25.35;17.85;;;19.50;99.90;;;;;;5027249;28;20065;-46
2022/04/14 06:27:44;;;;;;;24.15;18.20;;;20.00;99.90;;;;;;5027291;28;20048;-46
2022/04/14 06:30:11;;;;;;;24.60;17.15;;;20.20;99.90;;;;;;5027329;28;20091;-47
2022/04/14 06:32:37;;;;;;;29.15;18.95;;;20.40;99.90;;;;;;5027344;28;20472;-48
2022/04/14 06:35:06;;;;;;;26.27;18.63;;;20.40;99.90;;;;;;5026825;28;20093;-47
2022/04/14 06:37:33;;;;;;;29.33;18.25;;;21.20;98.60;;;;;;5027123;28;20053;-47
2022/04/14 06:39:58;;;;;;;24.85;18.38;;;21.70;96.10;;;;;;5026888;28;20045;-48
2022/04/14 06:42:24;;;;;;;25.38;18.60;;;22.10;94.80;;;;;;5027400;28;20123;-47
2022/04/14 06:44:50;;;;;;;28.33;18.00;;;21.80;93.90;;;;;;5027163;28;20052;-47
2022/04/14 06:47:16;;;;;;;26.35;18.33;;;21.40;93.60;;;;;;5027029;28;20041;-50
2022/04/14 06:49:41;;;;;;;26.65;17.73;;;21.10;93.40;;;;;;5026950;28;20045;-46
2022/04/14 06:52:08;;;;;;;23.05;17.70;;;21.20;93.00;;;;;;5025837;28;20068;-49
2022/04/14 06:54:34;;;;;;;26.83;18.08;;;21.90;92.00;;;;;;5026349;28;20046;-48
2022/04/14 06:57:00;;;;;;;26.33;17.33;;;22.60;90.90;;;;;;5025776;28;20052;-46
2022/04/14 06:59:27;;;;;;;22.17;16.52;;;23.00;89.00;;;;;;5026291;28;20037;-47
2022/04/14 07:01:53;;;;;;;20.55;15.38;;;23.30;87.30;;;;;;5026531;28;20369;-47
2022/04/14 07:04:19;;;;;;;24.00;15.60;;;23.50;86.00;;;;;;5028058;28;20045;-47
2022/04/14 07:06:46;;;;;;;20.90;15.25;;;23.60;84.30;;;;;;5030246;28;20407;-47
2022/04/14 07:09:12;;;;;;;18.15;15.38;;;23.40;83.10;;;;;;5030467;28;20115;-46
2022/04/14 07:11:38;;;;;;;22.30;16.23;;;22.50;83.10;;;;;;5030440;28;20049;-47
2022/04/14 07:14:03;;;;;;;19.10;14.15;;;21.80;83.50;;;;;;5030843;28;20064;-47
2022/04/14 07:16:29;;;;;;;22.38;15.23;;;21.20;84.70;;;;;;5030478;28;20045;-46
2022/04/14 07:18:54;;;;;;;20.30;14.23;;;20.60;85.20;;;;;;5030708;28;20049;-47
2022/04/14 07:21:20;;;;;;;21.13;15.73;;;20.00;87.50;;;;;;5030652;28;20475;-50
2022/04/14 07:23:46;;;;;;;20.95;14.80;;;19.60;89.10;;;;;;5030807;28;20052;-49
2022/04/14 07:26:11;;;;;;;20.83;15.02;;;19.30;90.30;;;;;;5030469;28;20377;-46
2022/04/14 07:28:37;;;;;;;18.13;13.57;;;19.00;90.80;;;;;;5028822;28;20080;-47
2022/04/14 07:31:03;;;;;;;20.65;14.90;;;18.80;91.40;;;;;;5030316;28;20040;-48
2022/04/14 07:33:29;;;;;;;18.83;14.27;;;18.50;92.30;;;;;;5030288;28;20041;-49
2022/04/14 07:35:54;;;;;;;15.63;12.60;;;18.20;93.00;;;;;;5028739;28;20049;-49
2022/04/14 07:38:20;;;;;;;18.38;12.65;;;17.90;93.70;;;;;;5028685;28;20120;-48
2022/04/14 07:40:46;;;;;;;21.75;14.57;;;17.70;94.50;;;;;;5030264;28;20111;-51
2022/04/14 07:43:11;;;;;;;20.58;14.07;;;17.60;95.40;;;;;;5030176;28;20049;-49
2022/04/14 07:45:39;;;;;;;18.23;12.95;;;17.50;96.10;;;;;;5030467;28;20095;-47
2022/04/14 07:48:05;;;;;;;18.63;13.23;;;17.70;96.60;;;;;;5029362;28;20132;-47
2022/04/14 07:50:32;;;;;;;19.98;15.02;;;17.80;96.50;;;;;;5029286;28;20038;-50
2022/04/14 07:52:59;;;;;;;17.73;14.30;;;17.90;96.50;;;;;;5029597;28;20057;-48
2022/04/14 07:55:30;;;;;;;16.40;13.18;;;18.50;96.60;;;;;;5029065;28;20049;-45
2022/04/14 07:58:00;;;;;;;20.27;13.75;;;19.00;95.60;;;;;;5030019;28;20041;-47
2022/04/14 08:00:26;;;;;;;17.63;13.07;;;19.20;94.40;;;;;;5029523;28;20049;-46
2022/04/14 08:02:56;;;;;;;18.13;13.75;;;19.00;93.80;;;;;;5029440;28;20056;-49
2022/04/14 08:05:31;;;;;;;17.85;13.50;;;19.20;93.90;;;;;;5028993;28;20667;-44
2022/04/14 08:07:57;;;;;;;17.50;12.65;;;19.90;93.30;;;;;;5028715;28;20045;-45
2022/04/14 08:10:23;;;;;;;14.82;11.60;;;20.90;92.30;;;;;;5028042;28;20496;-47
2022/04/14 08:12:49;;;;;;;19.25;12.27;;;22.10;91.20;;;;;;5029711;28;20388;-46
2022/04/14 08:15:14;;;;;;;14.98;9.60;;;23.20;87.10;;;;;;5028630;28;20050;-46
2022/04/14 08:17:41;;;;;;;14.05;10.65;;;24.00;82.20;;;;;;5029559;28;20518;-45
2022/04/14 08:20:09;;;;;;;11.38;10.18;;;24.60;78.00;;;;;;5029796;28;20148;-46
2022/04/14 08:22:47;;;;;;;12.32;10.05;;;25.30;76.50;;;;;;5029556;28;20106;-45
2022/04/14 08:25:22;;;;;;;12.77;10.02;;;26.30;77.50;;;;;;5029364;28;20052;-48
2022/04/14 08:27:49;;;;;;;13.27;9.50;;;26.60;70.80;;;;;;5029382;28;20053;-46
2022/04/14 08:30:16;;;;;;;12.40;9.75;;;26.80;68.80;;;;;;5028160;28;20087;-46
2022/04/14 08:32:43;;;;;;;13.00;10.70;;;26.90;68.00;;;;;;5028949;28;20551;-46
2022/04/14 08:35:11;;;;;;;12.77;9.85;;;27.20;67.20;;;;;;5029451;28;20037;-49
2022/04/14 08:37:38;;;;;;;13.07;10.48;;;27.50;66.00;;;;;;5029173;28;20077;-46
2022/04/14 08:40:09;;;;;;;13.13;10.63;;;27.40;65.10;;;;;;5027923;28;20128;-48
2022/04/14 08:42:40;;;;;;;9.88;8.35;;;27.80;65.40;;;;;;5028750;28;20085;-46
2022/04/14 08:45:11;;;;;;;9.45;7.65;;;28.60;63.30;;;;;;5028252;28;20045;-48
2022/04/14 08:47:41;;;;;;;10.10;7.88;;;28.80;61.40;;;;;;5028658;28;20136;-46
2022/04/14 08:50:12;;;;;;;9.73;7.30;;;28.70;60.90;;;;;;5029246;28;20355;-46
2022/04/14 08:52:39;;;;;;;10.70;7.43;;;28.80;59.50;;;;;;5028840;28;20470;-47
2022/04/14 08:55:08;;;;;;;9.82;6.90;;;28.20;57.30;;;;;;5029185;28;20085;-51
2022/04/14 08:57:35;;;;;;;9.02;7.82;;;27.80;57.50;;;;;;5029263;28;20095;-48
2022/04/14 09:00:05;;;;;;;9.05;6.95;;;27.50;58.70;;;;;;5029292;28;20049;-48
2022/04/14 09:02:32;;;;;;;9.50;7.88;;;27.70;58.80;;;;;;5028838;28;20563;-50
2022/04/14 09:04:58;;;;;;;9.65;7.25;;;28.10;58.60;;;;;;5028989;28;20128;-46
2022/04/14 09:07:25;;;;;;;9.98;7.97;;;27.50;57.70;;;;;;5028606;28;20043;-48
2022/04/14 09:09:51;;;;;;;11.68;9.00;;;27.10;58.50;;;;;;5028735;28;20045;-49
2022/04/14 09:12:17;;;;;;;10.45;8.52;;;27.10;59.20;;;;;;5028395;28;20048;-47
2022/04/14 09:14:44;;;;;;;12.02;8.27;;;27.40;59.20;;;;;;5028615;28;20038;-49
2022/04/14 09:17:09;;;;;;;13.63;9.90;;;27.70;58.10;;;;;;5028018;28;20049;-46
2022/04/14 09:19:37;;;;;;;12.70;9.80;;;27.80;57.40;;;;;;5028682;28;20046;-48
2022/04/14 09:22:07;;;;;;;11.70;8.60;;;27.80;57.40;;;;;;5028316;28;20084;-47
2022/04/14 09:24:57;;;;;;;9.95;8.30;;;28.00;57.10;;;;;;5027966;28;20063;-46
2022/04/14 09:27:27;;;;;;;11.52;9.10;;;28.20;57.20;;;;;;5027885;28;20095;-48
2022/04/14 09:29:55;;;;;;;10.27;8.52;;;28.30;56.60;;;;;;5028227;28;20060;-47
2022/04/14 09:32:43;;;;;;;10.88;8.77;;;27.70;55.20;;;;;;5027881;28;20042;-46
2022/04/14 09:35:31;;;;;;;9.68;7.85;;;26.10;55.30;;;;;;5028095;28;20084;-46
2022/04/14 09:38:10;;;;;;;11.35;8.80;;;25.00;59.20;;;;;;5027650;28;20041;-47
2022/04/14 09:40:37;;;;;;;9.90;8.27;;;25.20;59.40;;;;;;5027665;28;20104;-47
2022/04/14 09:43:05;;;;;;;11.15;8.68;;;24.80;59.80;;;;;;5027885;28;20388;-46
2022/04/14 09:45:33;;;;;;;12.88;9.20;;;23.90;60.60;;;;;;5027685;28;20041;-46
2022/04/14 09:48:18;;;;;;;13.00;9.35;;;24.00;63.00;;;;;;5027247;28;20088;-46
2022/04/14 09:50:48;;;;;;;10.35;7.85;;;23.90;62.80;;;;;;5027552;28;20047;-47
2022/04/14 09:53:15;;;;;;;10.20;8.88;;;23.50;62.50;;;;;;5027308;28;20139;-46
2022/04/14 09:55:51;;;;;;;9.48;7.10;;;22.70;62.90;;;;;;5027519;28;20045;-46
2022/04/14 09:58:19;;;;;;;10.27;8.05;;;21.90;65.70;;;;;;5027358;28;20111;-45
2022/04/14 10:00:48;;;;;;;10.90;8.70;;;22.20;67.70;;;;;;5027917;28;20077;-47
2022/04/14 10:03:24;;;;;;;10.75;8.70;;;22.20;66.70;;;;;;5027746;28;20045;-46
2022/04/14 10:05:58;;;;;;;12.10;9.30;;;22.20;66.90;;;;;;5027048;28;20041;-45
2022/04/14 10:08:24;;;;;;;9.27;7.90;;;22.80;67.20;;;;;;5026358;28;20053;-46
2022/04/14 10:11:07;;;;;;;9.48;7.78;;;23.30;66.40;;;;;;5026799;28;20123;-45
2022/04/14 10:13:40;;;;;;;11.18;8.07;;;23.00;63.80;;;;;;5026521;28;20446;-45
2022/04/14 10:16:10;;;;;;;10.77;7.53;;;22.00;64.70;;;;;;5026931;28;20038;-44
2022/04/14 10:18:36;;;;;;;10.70;8.32;;;21.80;67.00;;;;;;5027124;28;20514;-47
2022/04/14 10:21:05;;;;;;;9.73;6.90;;;22.00;67.10;;;;;;5028022;28;20092;-46
2022/04/14 10:23:32;;;;;;;13.48;10.23;;;21.60;66.80;;;;;;5027510;28;20055;-48
2022/04/14 10:25:59;;;;;;;11.52;9.38;;;21.10;68.00;;;;;;5027631;28;20041;-46
2022/04/14 10:28:26;;;;;;;12.70;8.75;;;20.50;69.50;;;;;;5027062;28;20092;-48
2022/04/14 10:30:55;;;;;;;11.88;8.82;;;20.00;71.90;;;;;;5027668;28;20037;-45
2022/04/14 10:33:22;;;;;;;10.35;8.27;;;19.60;76.80;;;;;;5025766;28;20496;-46
2022/04/14 10:35:52;;;;;;;11.70;8.32;;;19.20;86.60;;;;;;5027629;28;20045;-47
2022/04/14 10:38:28;;;;;;;10.15;7.10;;;18.90;80.30;;;;;;5027559;28;20088;-47
2022/04/14 10:41:23;;;;;;;9.50;6.38;;;19.10;76.30;;;;;;5031751;28;20407;-45
2022/04/14 10:43:49;;;;;;;9.27;6.82;;;20.30;76.60;;;;;;5027775;28;20053;-45
2022/04/14 10:46:16;;;;;;;11.73;5.40;;;20.60;74.00;;;;;;5029743;28;20060;-49
2022/04/14 10:48:43;;;;;;;9.73;5.97;;;20.50;73.50;;;;;;5029389;28;20056;-46
2022/04/14 10:51:28;;;;;;;7.43;6.07;;;20.00;74.50;;;;;;5031142;28;20034;-46
2022/04/14 10:54:06;;;;;;;8.60;6.05;;;19.70;75.80;;;;;;5031538;28;20084;-51
2022/04/14 10:56:34;;;;;;;8.40;5.25;;;19.30;77.30;;;;;;5031065;28;20033;-45
2022/04/14 10:59:03;;;;;;;8.18;5.78;;;19.30;77.80;;;;;;5029757;28;20487;-46
2022/04/14 11:01:47;;;;;;;8.80;5.80;;;19.40;78.30;;;;;;5030627;28;20491;-47
2022/04/14 11:04:31;;;;;;;5.90;4.10;;;19.60;78.30;;;;;;5030861;28;20041;-49
2022/04/14 11:06:59;;;;;;;9.25;4.13;;;19.40;76.40;;;;;;5030795;28;20053;-46
2022/04/14 11:09:42;;;;;;;8.23;4.00;;;19.00;76.50;;;;;;5030677;28;20049;-45
2022/04/14 11:12:12;;;;;;;5.00;3.63;;;18.60;76.80;;;;;;5030889;28;20048;-48
2022/04/14 11:14:45;;;;;;;6.40;4.00;;;18.20;83.60;;;;;;5030036;28;20088;-45
2022/04/14 11:17:48;;;;;;;4.30;2.15;;;17.90;79.10;;;;;;5013432;28;20072;-48
2022/04/14 11:20:34;;;;;;;5.72;1.90;;;17.70;77.90;;;;;;5027853;28;20124;-46
2022/04/14 11:23:12;;;;;;;5.35;1.88;;;17.40;78.90;;;;;;5028433;28;20049;-48
2022/04/14 11:25:49;;;;;;;4.35;1.58;;;17.50;79.80;;;;;;5028111;28;20053;-44
2022/04/14 11:28:21;;;;;;;4.75;1.40;;;17.70;79.90;;;;;;5027902;28;20060;-47
2022/04/14 11:30:48;;;;;;;6.00;1.63;;;18.10;81.90;;;;;;5027280;28;20495;-45
2022/04/14 11:33:25;;;;;;;4.57;1.45;;;18.60;82.60;;;;;;5026986;28;20630;-46
2022/04/14 11:35:52;;;;;;;4.10;1.58;;;18.90;79.90;;;;;;5028142;28;20053;-45
2022/04/14 11:38:56;;;;;;;5.20;2.40;;;19.10;79.50;;;;;;5027690;28;20045;-44
2022/04/14 11:41:41;;;;;;;6.47;2.28;;;19.20;79.30;;;;;;5028056;28;20480;-44
2022/04/14 11:44:12;;;;;;;6.22;2.13;;;19.20;77.20;;;;;;5027800;28;20507;-47
2022/04/14 11:46:41;;;;;;;4.88;2.03;;;18.90;77.00;;;;;;5028136;28;20041;-48
2022/04/14 11:49:09;;;;;;;6.30;3.47;;;18.70;79.10;;;;;;5027809;28;20775;-45
2022/04/14 11:51:48;;;;;;;5.70;2.10;;;18.80;81.00;;;;;;5026695;28;20061;-48
2022/04/14 11:54:37;;;;;;;3.03;1.15;;;18.80;81.00;;;;;;5028402;28;20464;-46
2022/04/14 11:57:09;;;;;;;5.10;1.80;;;18.90;79.90;;;;;;5028096;28;20041;-45
2022/04/14 11:59:47;;;;;;;4.63;2.08;;;18.90;80.70;;;;;;5027809;28;20080;-48
2022/04/14 12:02:21;;;;;;;3.60;1.27;;;19.10;81.90;;;;;;5027204;28;20038;-47
2022/04/14 12:04:51;;;;;;;3.42;0.80;;;19.30;80.60;;;;;;5026700;28;20041;-48
2022/04/14 12:07:18;;;;;;;5.68;1.40;;;19.50;79.00;;;;;;5026685;28;20491;-46
2022/04/14 12:09:44;;;;;;;3.75;1.65;;;19.70;78.10;;;;;;5024959;28;20049;-46
2022/04/14 12:12:12;;;;;;;3.67;0.75;;;19.70;77.90;;;;;;5025896;28;20360;-47
2022/04/14 12:14:46;;;;;;;4.85;0.85;;;19.80;77.60;;;;;;5008574;28;20460;-46
2022/04/14 12:17:13;;;;;;;2.63;0.35;;;19.80;76.20;;;;;;5018303;28;20056;-49
2022/04/14 12:19:42;;;;;;;4.55;0.77;;;19.90;76.60;;;;;;5027349;28;20132;-46
2022/04/14 12:22:08;;;;;;;3.53;0.73;;;19.60;76.90;;;;;;5027220;28;20128;-50
2022/04/14 12:24:34;;;;;;;4.88;0.50;;;20.10;75.40;;;;;;5026978;28;20136;-48
2022/04/14 12:27:00;;;;;;;2.92;0.93;;;20.20;75.30;;;;;;5025955;28;20120;-46
2022/04/14 12:29:29;;;;;;;2.55;0.70;;;20.00;75.00;;;;;;5027889;28;20049;-49
2022/04/14 12:31:57;;;;;;;1.63;0.63;;;20.00;74.60;;;;;;5029697;28;20120;-48
2022/04/14 12:34:23;;;;;;;7.47;1.38;;;20.10;73.60;;;;;;5029913;28;20046;-45
2022/04/14 12:36:49;;;;;;;6.18;0.57;;;20.20;74.60;;;;;;5017456;28;20084;-50
2022/04/14 12:39:20;;;;;;;2.30;0.73;;;20.30;74.80;;;;;;5025549;28;20146;-48
2022/04/14 12:41:47;;;;;;;3.13;0.80;;;20.30;74.60;;;;;;5026141;28;20045;-50
2022/04/14 12:44:18;;;;;;;2.92;0.73;;;20.40;73.70;;;;;;5026339;28;20103;-49